Nearby METAR Reports

 

KTCM - Tacoma,Washington,
Updated: 12/12/2018 10:58am
Overcast
Overcast
 Wind from S
Wind: S 10 mph , 17 km/h
Temperature: 45°F , 7°C
Wind Chill: 40°F , 4°C
Dew Point: 45°F , 7°C
Humidity: 100%
Barometer: 30.30 inHg , 1026.1 hPa
Clouds: Overcast
Visibility: 10 miles , 16 km
Cloud details: Overcast 7500 ft
2018/12/12 18:58 KTCM 121858Z AUTO 18009KT 10SM OVC075 07/07 A3030 RMK AO2 SLP266 T00690068 $
KSEA - Seattle,Washington,
Updated: 12/12/2018 11:53am
Overcast
Overcast
 Wind from S
Wind: S 10 mph , 17 km/h
Temperature: 46°F , 8°C
Wind Chill: 41°F , 5°C
Dew Point: 39°F , 4°C
Humidity: 76%
Barometer: 30.27 inHg , 1025.1 hPa
Clouds: Overcast
Visibility: 10 miles , 16 km
Cloud details: Few Clouds 1700 ft
Mostly cloudy 5000 ft
Overcast 7000 ft
2018/12/12 19:53 KSEA 121953Z 18009KT 10SM FEW017 BKN050 OVC070 08/04 A3027 RMK AO2 RAB24E35 SLP257 P0000 T00780039
 
KOLM - Olympia,Washington,
Updated: 12/12/2018 11:54am
Few Clouds
Few Clouds
 Wind from SW
Wind: SW 7 mph , 11 km/h
Temperature: 45°F , 7°C
Wind Chill: 41°F , 5°C
Dew Point: 39°F , 4°C
Humidity: 81%
Barometer: 30.29 inHg , 1025.7 hPa
Clouds: Few Clouds
Visibility: 10 miles , 16 km
Cloud details: Few Clouds 5500 ft
2018/12/12 19:54 KOLM 121954Z 22006KT 10SM FEW055 07/04 A3029 RMK AO2 SLP260 T00670044
KHQM - Hoquiam,Washington,
Updated: 12/12/2018 11:53am
Mist, Overcast
Mist, Overcast
 Wind from SSE
Wind: SSE 12 mph , 19 km/h
Temperature: 48°F , 9°C
Wind Chill: 43°F , 6°C
Dew Point: 45°F , 7°C
Humidity: 87%
Barometer: 30.27 inHg , 1025.1 hPa
Summary: Mist
Clouds: Overcast
Visibility: 6 miles , 10 km
Cloud details: Few Clouds 3100 ft
Mostly cloudy 4100 ft
Overcast 5000 ft
2018/12/12 19:53 KHQM 121953Z AUTO 16010KT 6SM BR FEW031 BKN041 OVC050 09/07 A3027 RMK AO2 PK WND 17026/1922 RAB12E37 SLP254 P0001 T00890067
 
KGEG - Spokane,Washington,
Updated: 12/12/2018 11:53am
Partly cloudy
Partly cloudy
 Wind from SW
Wind: SW 20 mph , 31 km/h
Temperature: 37°F , 3°C
Wind Chill: 27°F , -3°C
Dew Point: 28°F , -2°C
Humidity: 70%
Barometer: 30.12 inHg , 1020 hPa
Clouds: Partly cloudy
Visibility: 10 miles , 16 km
Cloud details: Partly cloudy 2000 ft
Partly cloudy 20000 ft
2018/12/12 19:53 KGEG 121953Z 22017KT 10SM SCT020 SCT200 03/M02 A3012 RMK AO2 SLP215 T00281017 $
KBLI - Bellingham,Washington,
Updated: 12/12/2018 11:53am
Overcast
Overcast
 Wind from SSE
Wind: SSE 15 mph , 24 km/h, Gust: 21 mph , 33 km/h
Temperature: 45°F , 7°C
Wind Chill: 38°F , 3°C
Dew Point: 36°F , 2°C
Humidity: 71%
Barometer: 30.20 inHg , 1022.7 hPa
Clouds: Overcast
Visibility: 10 miles , 16 km
Cloud details: Few Clouds 4800 ft
Overcast 6000 ft
2018/12/12 19:53 KBLI 121953Z 15013G18KT 10SM FEW048 OVC060 07/02 A3020 RMK AO2 RAB00E16 SLP236 P0000 T00720022